<?xml version="1.0" encoding="UTF-8" standalone="no" ?>
<gpx xmlns="http://www.topografix.com/GPX/1/1" xmlns:xsi="http://www.w3.org/2001/XMLSchema-instance" xsi:schemaLocation="http://www.topografix.com/GPX/1/1 http://www.topografix.com/GPX/1/1/gpx.xsd" version="1.1" creator="VisuGPX - https://www.visugpx.com">
  <metadata>
    <name>9456915-5-LAURIS-MERINDOL(24.05.19)</name>
    <desc><![CDATA[Etape Lauris Mérendol groupe de 5 attelages organisation ADADA]]></desc>
  </metadata>
  <trk>
    <name><![CDATA[9456915-5-LAURIS-MERINDOL(24.05.19)]]></name>
    <trkseg>
      <trkpt lat="43.77204" lon="5.29786">
        <ele>267</ele>
        <time>2019-01-11T07:46:02Z</time>
      </trkpt>
      <trkpt lat="43.7732" lon="5.29476">
        <ele>276</ele>
        <time>2019-01-11T07:47:02Z</time>
      </trkpt>
      <trkpt lat="43.77206" lon="5.294">
        <ele>270</ele>
        <time>2019-01-11T07:48:02Z</time>
      </trkpt>
      <trkpt lat="43.77141" lon="5.29391">
        <ele>276</ele>
        <time>2019-01-11T07:49:02Z</time>
      </trkpt>
      <trkpt lat="43.76926" lon="5.29481">
        <ele>268</ele>
        <time>2019-01-11T07:50:02Z</time>
      </trkpt>
      <trkpt lat="43.76863" lon="5.29525">
        <ele>265</ele>
        <time>2019-01-11T07:51:02Z</time>
      </trkpt>
      <trkpt lat="43.76655" lon="5.29728">
        <ele>251</ele>
        <time>2019-01-11T07:52:02Z</time>
      </trkpt>
      <trkpt lat="43.76596" lon="5.29855">
        <ele>245</ele>
        <time>2019-01-11T07:53:02Z</time>
      </trkpt>
      <trkpt lat="43.76472" lon="5.30037">
        <ele>235</ele>
        <time>2019-01-11T07:54:02Z</time>
      </trkpt>
      <trkpt lat="43.76475" lon="5.30118">
        <ele>233</ele>
        <time>2019-01-11T07:55:02Z</time>
      </trkpt>
      <trkpt lat="43.7648" lon="5.3018">
        <ele>229</ele>
        <time>2019-01-11T07:56:02Z</time>
      </trkpt>
      <trkpt lat="43.76453" lon="5.3021">
        <ele>226</ele>
        <time>2019-01-11T07:57:02Z</time>
      </trkpt>
      <trkpt lat="43.76489" lon="5.30207">
        <ele>227</ele>
        <time>2019-01-11T07:58:02Z</time>
      </trkpt>
      <trkpt lat="43.76529" lon="5.30392">
        <ele>217</ele>
        <time>2019-01-11T07:59:02Z</time>
      </trkpt>
      <trkpt lat="43.76237" lon="5.30544">
        <ele>205</ele>
        <time>2019-01-11T08:00:02Z</time>
      </trkpt>
      <trkpt lat="43.76122" lon="5.30584">
        <ele>205</ele>
        <time>2019-01-11T08:01:02Z</time>
      </trkpt>
      <trkpt lat="43.76062" lon="5.30585">
        <ele>204</ele>
        <time>2019-01-11T08:02:02Z</time>
      </trkpt>
      <trkpt lat="43.75803" lon="5.30684">
        <ele>198</ele>
        <time>2019-01-11T08:03:02Z</time>
      </trkpt>
      <trkpt lat="43.7568" lon="5.30696">
        <ele>188</ele>
        <time>2019-01-11T08:04:02Z</time>
      </trkpt>
      <trkpt lat="43.7544" lon="5.30806">
        <ele>179</ele>
        <time>2019-01-11T08:05:02Z</time>
      </trkpt>
      <trkpt lat="43.75376" lon="5.30846">
        <ele>179</ele>
        <time>2019-01-11T08:06:02Z</time>
      </trkpt>
      <trkpt lat="43.75328" lon="5.30892">
        <ele>177</ele>
        <time>2019-01-11T08:07:02Z</time>
      </trkpt>
      <trkpt lat="43.75249" lon="5.30907">
        <ele>178</ele>
        <time>2019-01-11T08:08:02Z</time>
      </trkpt>
      <trkpt lat="43.75201" lon="5.30966">
        <ele>176</ele>
        <time>2019-01-11T08:09:02Z</time>
      </trkpt>
      <trkpt lat="43.751" lon="5.3096">
        <ele>172</ele>
        <time>2019-01-11T08:10:02Z</time>
      </trkpt>
      <trkpt lat="43.75023" lon="5.31035">
        <ele>169</ele>
        <time>2019-01-11T08:11:02Z</time>
      </trkpt>
      <trkpt lat="43.74959" lon="5.31056">
        <ele>168</ele>
        <time>2019-01-11T08:12:02Z</time>
      </trkpt>
      <trkpt lat="43.74823" lon="5.3101">
        <ele>161</ele>
        <time>2019-01-11T08:13:02Z</time>
      </trkpt>
      <trkpt lat="43.74863" lon="5.30897">
        <ele>154</ele>
        <time>2019-01-11T08:14:02Z</time>
      </trkpt>
      <trkpt lat="43.7477" lon="5.3084">
        <ele>148</ele>
        <time>2019-01-11T08:15:02Z</time>
      </trkpt>
      <trkpt lat="43.74828" lon="5.30751">
        <ele>143</ele>
        <time>2019-01-11T08:16:02Z</time>
      </trkpt>
      <trkpt lat="43.74848" lon="5.30713">
        <ele>144</ele>
        <time>2019-01-11T08:17:02Z</time>
      </trkpt>
      <trkpt lat="43.74912" lon="5.30565">
        <ele>145</ele>
        <time>2019-01-11T08:18:02Z</time>
      </trkpt>
      <trkpt lat="43.74928" lon="5.3049">
        <ele>147</ele>
        <time>2019-01-11T08:19:02Z</time>
      </trkpt>
      <trkpt lat="43.74908" lon="5.30231">
        <ele>148</ele>
        <time>2019-01-11T08:20:02Z</time>
      </trkpt>
      <trkpt lat="43.7488" lon="5.30205">
        <ele>145</ele>
        <time>2019-01-11T08:21:02Z</time>
      </trkpt>
      <trkpt lat="43.7486" lon="5.30112">
        <ele>142</ele>
        <time>2019-01-11T08:22:02Z</time>
      </trkpt>
      <trkpt lat="43.74957" lon="5.29781">
        <ele>138</ele>
        <time>2019-01-11T08:23:02Z</time>
      </trkpt>
      <trkpt lat="43.74984" lon="5.29754">
        <ele>139</ele>
        <time>2019-01-11T08:24:02Z</time>
      </trkpt>
      <trkpt lat="43.75067" lon="5.29505">
        <ele>137</ele>
        <time>2019-01-11T08:25:02Z</time>
      </trkpt>
      <trkpt lat="43.75105" lon="5.29476">
        <ele>139</ele>
        <time>2019-01-11T08:26:02Z</time>
      </trkpt>
      <trkpt lat="43.75132" lon="5.29434">
        <ele>142</ele>
        <time>2019-01-11T08:27:02Z</time>
      </trkpt>
      <trkpt lat="43.75158" lon="5.29337">
        <ele>143</ele>
        <time>2019-01-11T08:28:02Z</time>
      </trkpt>
      <trkpt lat="43.75162" lon="5.2928">
        <ele>142</ele>
        <time>2019-01-11T08:29:02Z</time>
      </trkpt>
      <trkpt lat="43.75042" lon="5.28975">
        <ele>141</ele>
        <time>2019-01-11T08:30:02Z</time>
      </trkpt>
      <trkpt lat="43.74932" lon="5.28736">
        <ele>142</ele>
        <time>2019-01-11T08:31:02Z</time>
      </trkpt>
      <trkpt lat="43.74781" lon="5.28685">
        <ele>136</ele>
        <time>2019-01-11T08:32:02Z</time>
      </trkpt>
      <trkpt lat="43.74685" lon="5.28456">
        <ele>136</ele>
        <time>2019-01-11T08:33:02Z</time>
      </trkpt>
      <trkpt lat="43.74862" lon="5.28397">
        <ele>139</ele>
        <time>2019-01-11T08:34:02Z</time>
      </trkpt>
      <trkpt lat="43.74948" lon="5.27689">
        <ele>133</ele>
        <time>2019-01-11T08:35:02Z</time>
      </trkpt>
      <trkpt lat="43.74937" lon="5.27645">
        <ele>132</ele>
        <time>2019-01-11T08:36:02Z</time>
      </trkpt>
      <trkpt lat="43.74963" lon="5.27602">
        <ele>132</ele>
        <time>2019-01-11T08:37:02Z</time>
      </trkpt>
      <trkpt lat="43.75049" lon="5.26877">
        <ele>131</ele>
        <time>2019-01-11T08:38:02Z</time>
      </trkpt>
      <trkpt lat="43.75059" lon="5.26765">
        <ele>132</ele>
        <time>2019-01-11T08:39:02Z</time>
      </trkpt>
      <trkpt lat="43.751" lon="5.26783">
        <ele>132</ele>
        <time>2019-01-11T08:40:02Z</time>
      </trkpt>
      <trkpt lat="43.75116" lon="5.26814">
        <ele>131</ele>
        <time>2019-01-11T08:41:02Z</time>
      </trkpt>
      <trkpt lat="43.75157" lon="5.26808">
        <ele>131</ele>
        <time>2019-01-11T08:42:02Z</time>
      </trkpt>
      <trkpt lat="43.75424" lon="5.26949">
        <ele>142</ele>
        <time>2019-01-11T08:43:02Z</time>
      </trkpt>
      <trkpt lat="43.75433" lon="5.26981">
        <ele>144</ele>
        <time>2019-01-11T08:44:02Z</time>
      </trkpt>
      <trkpt lat="43.75411" lon="5.27027">
        <ele>145</ele>
        <time>2019-01-11T08:45:02Z</time>
      </trkpt>
      <trkpt lat="43.75395" lon="5.27058">
        <ele>146</ele>
        <time>2019-01-11T08:46:02Z</time>
      </trkpt>
      <trkpt lat="43.75404" lon="5.27076">
        <ele>150</ele>
        <time>2019-01-11T08:47:02Z</time>
      </trkpt>
      <trkpt lat="43.75442" lon="5.27011">
        <ele>148</ele>
        <time>2019-01-11T08:48:02Z</time>
      </trkpt>
      <trkpt lat="43.75472" lon="5.27006">
        <ele>152</ele>
        <time>2019-01-11T08:49:02Z</time>
      </trkpt>
      <trkpt lat="43.75509" lon="5.2702">
        <ele>159</ele>
        <time>2019-01-11T08:50:02Z</time>
      </trkpt>
      <trkpt lat="43.75509" lon="5.27002">
        <ele>157</ele>
        <time>2019-01-11T08:51:02Z</time>
      </trkpt>
      <trkpt lat="43.75495" lon="5.26966">
        <ele>154</ele>
        <time>2019-01-11T08:52:02Z</time>
      </trkpt>
      <trkpt lat="43.75497" lon="5.26956">
        <ele>153</ele>
        <time>2019-01-11T08:53:02Z</time>
      </trkpt>
      <trkpt lat="43.75498" lon="5.26916">
        <ele>152</ele>
        <time>2019-01-11T08:54:02Z</time>
      </trkpt>
      <trkpt lat="43.75503" lon="5.26904">
        <ele>152</ele>
        <time>2019-01-11T08:55:02Z</time>
      </trkpt>
      <trkpt lat="43.75518" lon="5.26901">
        <ele>152</ele>
        <time>2019-01-11T08:56:02Z</time>
      </trkpt>
      <trkpt lat="43.75533" lon="5.26927">
        <ele>153</ele>
        <time>2019-01-11T08:57:02Z</time>
      </trkpt>
      <trkpt lat="43.75544" lon="5.26954">
        <ele>155</ele>
        <time>2019-01-11T08:58:02Z</time>
      </trkpt>
      <trkpt lat="43.75545" lon="5.26968">
        <ele>156</ele>
        <time>2019-01-11T08:59:02Z</time>
      </trkpt>
      <trkpt lat="43.75584" lon="5.27043">
        <ele>164</ele>
        <time>2019-01-11T09:00:02Z</time>
      </trkpt>
      <trkpt lat="43.75675" lon="5.27126">
        <ele>174</ele>
        <time>2019-01-11T09:01:02Z</time>
      </trkpt>
      <trkpt lat="43.75741" lon="5.27144">
        <ele>180</ele>
        <time>2019-01-11T09:02:02Z</time>
      </trkpt>
      <trkpt lat="43.75778" lon="5.27138">
        <ele>181</ele>
        <time>2019-01-11T09:03:02Z</time>
      </trkpt>
      <trkpt lat="43.75858" lon="5.27166">
        <ele>187</ele>
        <time>2019-01-11T09:04:02Z</time>
      </trkpt>
      <trkpt lat="43.75894" lon="5.27162">
        <ele>187</ele>
        <time>2019-01-11T09:05:02Z</time>
      </trkpt>
      <trkpt lat="43.75943" lon="5.27153">
        <ele>188</ele>
        <time>2019-01-11T09:06:02Z</time>
      </trkpt>
      <trkpt lat="43.75999" lon="5.27155">
        <ele>192</ele>
        <time>2019-01-11T09:07:02Z</time>
      </trkpt>
      <trkpt lat="43.76165" lon="5.27203">
        <ele>204</ele>
        <time>2019-01-11T09:08:02Z</time>
      </trkpt>
      <trkpt lat="43.76207" lon="5.27142">
        <ele>205</ele>
        <time>2019-01-11T09:09:02Z</time>
      </trkpt>
      <trkpt lat="43.76232" lon="5.27102">
        <ele>207</ele>
        <time>2019-01-11T09:10:02Z</time>
      </trkpt>
      <trkpt lat="43.76223" lon="5.27057">
        <ele>207</ele>
        <time>2019-01-11T09:11:02Z</time>
      </trkpt>
      <trkpt lat="43.76205" lon="5.27006">
        <ele>208</ele>
        <time>2019-01-11T09:12:02Z</time>
      </trkpt>
      <trkpt lat="43.76191" lon="5.26981">
        <ele>208</ele>
        <time>2019-01-11T09:13:02Z</time>
      </trkpt>
      <trkpt lat="43.76147" lon="5.26812">
        <ele>207</ele>
        <time>2019-01-11T09:14:02Z</time>
      </trkpt>
      <trkpt lat="43.76129" lon="5.26765">
        <ele>207</ele>
        <time>2019-01-11T09:15:02Z</time>
      </trkpt>
      <trkpt lat="43.76035" lon="5.26664">
        <ele>200</ele>
        <time>2019-01-11T09:16:02Z</time>
      </trkpt>
      <trkpt lat="43.75999" lon="5.26625">
        <ele>196</ele>
        <time>2019-01-11T09:17:02Z</time>
      </trkpt>
      <trkpt lat="43.75925" lon="5.26591">
        <ele>190</ele>
        <time>2019-01-11T09:18:02Z</time>
      </trkpt>
      <trkpt lat="43.75914" lon="5.26562">
        <ele>188</ele>
        <time>2019-01-11T09:19:02Z</time>
      </trkpt>
      <trkpt lat="43.75914" lon="5.26518">
        <ele>186</ele>
        <time>2019-01-11T09:20:02Z</time>
      </trkpt>
      <trkpt lat="43.75926" lon="5.26496">
        <ele>186</ele>
        <time>2019-01-11T09:21:02Z</time>
      </trkpt>
      <trkpt lat="43.7594" lon="5.26481">
        <ele>187</ele>
        <time>2019-01-11T09:22:02Z</time>
      </trkpt>
      <trkpt lat="43.75993" lon="5.26389">
        <ele>190</ele>
        <time>2019-01-11T09:23:02Z</time>
      </trkpt>
      <trkpt lat="43.75986" lon="5.26364">
        <ele>190</ele>
        <time>2019-01-11T09:24:02Z</time>
      </trkpt>
      <trkpt lat="43.75975" lon="5.26362">
        <ele>190</ele>
        <time>2019-01-11T09:25:02Z</time>
      </trkpt>
      <trkpt lat="43.75892" lon="5.26368">
        <ele>186</ele>
        <time>2019-01-11T09:26:02Z</time>
      </trkpt>
      <trkpt lat="43.75876" lon="5.26362">
        <ele>186</ele>
        <time>2019-01-11T09:27:02Z</time>
      </trkpt>
      <trkpt lat="43.75869" lon="5.2635">
        <ele>187</ele>
        <time>2019-01-11T09:28:02Z</time>
      </trkpt>
      <trkpt lat="43.75836" lon="5.26172">
        <ele>188</ele>
        <time>2019-01-11T09:29:02Z</time>
      </trkpt>
      <trkpt lat="43.75836" lon="5.26163">
        <ele>188</ele>
        <time>2019-01-11T09:30:02Z</time>
      </trkpt>
      <trkpt lat="43.75853" lon="5.26116">
        <ele>189</ele>
        <time>2019-01-11T09:31:02Z</time>
      </trkpt>
      <trkpt lat="43.75807" lon="5.26055">
        <ele>188</ele>
        <time>2019-01-11T09:32:02Z</time>
      </trkpt>
      <trkpt lat="43.75964" lon="5.2602">
        <ele>196</ele>
        <time>2019-01-11T09:33:02Z</time>
      </trkpt>
      <trkpt lat="43.76098" lon="5.2598">
        <ele>202</ele>
        <time>2019-01-11T09:34:02Z</time>
      </trkpt>
      <trkpt lat="43.76128" lon="5.25956">
        <ele>203</ele>
        <time>2019-01-11T09:35:02Z</time>
      </trkpt>
      <trkpt lat="43.76162" lon="5.25881">
        <ele>203</ele>
        <time>2019-01-11T09:36:02Z</time>
      </trkpt>
      <trkpt lat="43.76159" lon="5.25843">
        <ele>203</ele>
        <time>2019-01-11T09:37:02Z</time>
      </trkpt>
      <trkpt lat="43.76219" lon="5.25681">
        <ele>185</ele>
        <time>2019-01-11T09:38:02Z</time>
      </trkpt>
      <trkpt lat="43.76224" lon="5.25639">
        <ele>183</ele>
        <time>2019-01-11T09:39:02Z</time>
      </trkpt>
      <trkpt lat="43.76228" lon="5.25605">
        <ele>183</ele>
        <time>2019-01-11T09:40:02Z</time>
      </trkpt>
      <trkpt lat="43.76197" lon="5.25533">
        <ele>188</ele>
        <time>2019-01-11T09:41:02Z</time>
      </trkpt>
      <trkpt lat="43.76183" lon="5.25512">
        <ele>190</ele>
        <time>2019-01-11T09:42:02Z</time>
      </trkpt>
      <trkpt lat="43.76165" lon="5.25507">
        <ele>190</ele>
        <time>2019-01-11T09:43:02Z</time>
      </trkpt>
      <trkpt lat="43.76143" lon="5.255">
        <ele>190</ele>
        <time>2019-01-11T09:44:02Z</time>
      </trkpt>
      <trkpt lat="43.76125" lon="5.25491">
        <ele>190</ele>
        <time>2019-01-11T09:45:02Z</time>
      </trkpt>
      <trkpt lat="43.76086" lon="5.25434">
        <ele>197</ele>
        <time>2019-01-11T09:46:02Z</time>
      </trkpt>
      <trkpt lat="43.7609" lon="5.25413">
        <ele>201</ele>
        <time>2019-01-11T09:47:02Z</time>
      </trkpt>
      <trkpt lat="43.76091" lon="5.25392">
        <ele>201</ele>
        <time>2019-01-11T09:48:02Z</time>
      </trkpt>
      <trkpt lat="43.76109" lon="5.25098">
        <ele>200</ele>
        <time>2019-01-11T09:49:02Z</time>
      </trkpt>
      <trkpt lat="43.76101" lon="5.25066">
        <ele>199</ele>
        <time>2019-01-11T09:50:02Z</time>
      </trkpt>
      <trkpt lat="43.76131" lon="5.24882">
        <ele>193</ele>
        <time>2019-01-11T09:51:02Z</time>
      </trkpt>
      <trkpt lat="43.76103" lon="5.24727">
        <ele>182</ele>
        <time>2019-01-11T09:52:02Z</time>
      </trkpt>
      <trkpt lat="43.76097" lon="5.247">
        <ele>180</ele>
        <time>2019-01-11T09:53:02Z</time>
      </trkpt>
      <trkpt lat="43.76088" lon="5.24647">
        <ele>177</ele>
        <time>2019-01-11T09:54:02Z</time>
      </trkpt>
      <trkpt lat="43.76066" lon="5.24559">
        <ele>177</ele>
        <time>2019-01-11T09:55:02Z</time>
      </trkpt>
      <trkpt lat="43.76033" lon="5.24361">
        <ele>179</ele>
        <time>2019-01-11T09:56:02Z</time>
      </trkpt>
      <trkpt lat="43.76027" lon="5.24293">
        <ele>182</ele>
        <time>2019-01-11T09:57:02Z</time>
      </trkpt>
      <trkpt lat="43.76007" lon="5.24233">
        <ele>184</ele>
        <time>2019-01-11T09:58:02Z</time>
      </trkpt>
      <trkpt lat="43.75981" lon="5.24156">
        <ele>187</ele>
        <time>2019-01-11T09:59:02Z</time>
      </trkpt>
      <trkpt lat="43.7597" lon="5.24039">
        <ele>184</ele>
        <time>2019-01-11T10:00:02Z</time>
      </trkpt>
      <trkpt lat="43.75932" lon="5.23942">
        <ele>173</ele>
        <time>2019-01-11T10:01:02Z</time>
      </trkpt>
      <trkpt lat="43.75918" lon="5.23891">
        <ele>168</ele>
        <time>2019-01-11T10:02:02Z</time>
      </trkpt>
      <trkpt lat="43.75879" lon="5.23799">
        <ele>162</ele>
        <time>2019-01-11T10:03:02Z</time>
      </trkpt>
      <trkpt lat="43.75868" lon="5.23753">
        <ele>157</ele>
        <time>2019-01-11T10:04:02Z</time>
      </trkpt>
      <trkpt lat="43.75885" lon="5.23669">
        <ele>154</ele>
        <time>2019-01-11T10:05:02Z</time>
      </trkpt>
      <trkpt lat="43.75885" lon="5.23627">
        <ele>155</ele>
        <time>2019-01-11T10:06:02Z</time>
      </trkpt>
      <trkpt lat="43.75883" lon="5.23586">
        <ele>156</ele>
        <time>2019-01-11T10:07:02Z</time>
      </trkpt>
      <trkpt lat="43.75872" lon="5.23536">
        <ele>154</ele>
        <time>2019-01-11T10:08:02Z</time>
      </trkpt>
      <trkpt lat="43.75857" lon="5.23487">
        <ele>152</ele>
        <time>2019-01-11T10:09:02Z</time>
      </trkpt>
      <trkpt lat="43.7583" lon="5.23452">
        <ele>151</ele>
        <time>2019-01-11T10:10:02Z</time>
      </trkpt>
      <trkpt lat="43.75828" lon="5.23434">
        <ele>151</ele>
        <time>2019-01-11T10:11:02Z</time>
      </trkpt>
      <trkpt lat="43.75826" lon="5.23376">
        <ele>149</ele>
        <time>2019-01-11T10:12:02Z</time>
      </trkpt>
      <trkpt lat="43.75808" lon="5.23359">
        <ele>147</ele>
        <time>2019-01-11T10:13:02Z</time>
      </trkpt>
      <trkpt lat="43.7577" lon="5.23327">
        <ele>146</ele>
        <time>2019-01-11T10:14:02Z</time>
      </trkpt>
      <trkpt lat="43.75679" lon="5.23265">
        <ele>146</ele>
        <time>2019-01-11T10:15:02Z</time>
      </trkpt>
      <trkpt lat="43.75665" lon="5.23192">
        <ele>150</ele>
        <time>2019-01-11T10:16:02Z</time>
      </trkpt>
      <trkpt lat="43.75646" lon="5.23164">
        <ele>148</ele>
        <time>2019-01-11T10:17:02Z</time>
      </trkpt>
      <trkpt lat="43.75638" lon="5.23135">
        <ele>147</ele>
        <time>2019-01-11T10:18:02Z</time>
      </trkpt>
      <trkpt lat="43.75637" lon="5.2311">
        <ele>148</ele>
        <time>2019-01-11T10:19:02Z</time>
      </trkpt>
      <trkpt lat="43.75656" lon="5.23056">
        <ele>154</ele>
        <time>2019-01-11T10:20:02Z</time>
      </trkpt>
      <trkpt lat="43.75654" lon="5.23035">
        <ele>155</ele>
        <time>2019-01-11T10:21:02Z</time>
      </trkpt>
      <trkpt lat="43.75638" lon="5.23014">
        <ele>152</ele>
        <time>2019-01-11T10:22:02Z</time>
      </trkpt>
      <trkpt lat="43.75644" lon="5.22983">
        <ele>153</ele>
        <time>2019-01-11T10:23:02Z</time>
      </trkpt>
      <trkpt lat="43.75658" lon="5.2294">
        <ele>155</ele>
        <time>2019-01-11T10:24:02Z</time>
      </trkpt>
      <trkpt lat="43.75668" lon="5.22918">
        <ele>156</ele>
        <time>2019-01-11T10:25:02Z</time>
      </trkpt>
      <trkpt lat="43.75707" lon="5.22893">
        <ele>162</ele>
        <time>2019-01-11T10:26:02Z</time>
      </trkpt>
      <trkpt lat="43.75702" lon="5.22876">
        <ele>161</ele>
        <time>2019-01-11T10:27:02Z</time>
      </trkpt>
      <trkpt lat="43.75691" lon="5.2287">
        <ele>160</ele>
        <time>2019-01-11T10:28:02Z</time>
      </trkpt>
      <trkpt lat="43.75655" lon="5.22857">
        <ele>156</ele>
        <time>2019-01-11T10:29:02Z</time>
      </trkpt>
      <trkpt lat="43.75646" lon="5.22834">
        <ele>155</ele>
        <time>2019-01-11T10:30:02Z</time>
      </trkpt>
      <trkpt lat="43.75641" lon="5.22816">
        <ele>154</ele>
        <time>2019-01-11T10:31:02Z</time>
      </trkpt>
      <trkpt lat="43.75638" lon="5.22787">
        <ele>155</ele>
        <time>2019-01-11T10:32:02Z</time>
      </trkpt>
      <trkpt lat="43.75644" lon="5.22712">
        <ele>156</ele>
        <time>2019-01-11T10:33:02Z</time>
      </trkpt>
      <trkpt lat="43.75636" lon="5.22653">
        <ele>155</ele>
        <time>2019-01-11T10:34:02Z</time>
      </trkpt>
      <trkpt lat="43.75637" lon="5.22618">
        <ele>155</ele>
        <time>2019-01-11T10:35:02Z</time>
      </trkpt>
      <trkpt lat="43.75646" lon="5.22569">
        <ele>155</ele>
        <time>2019-01-11T10:36:02Z</time>
      </trkpt>
      <trkpt lat="43.75659" lon="5.22527">
        <ele>156</ele>
        <time>2019-01-11T10:37:02Z</time>
      </trkpt>
      <trkpt lat="43.75673" lon="5.22478">
        <ele>158</ele>
        <time>2019-01-11T10:38:02Z</time>
      </trkpt>
      <trkpt lat="43.7565" lon="5.22446">
        <ele>158</ele>
        <time>2019-01-11T10:39:02Z</time>
      </trkpt>
      <trkpt lat="43.75647" lon="5.22419">
        <ele>158</ele>
        <time>2019-01-11T10:40:02Z</time>
      </trkpt>
      <trkpt lat="43.7566" lon="5.22348">
        <ele>160</ele>
        <time>2019-01-11T10:41:02Z</time>
      </trkpt>
      <trkpt lat="43.75673" lon="5.22285">
        <ele>161</ele>
        <time>2019-01-11T10:42:02Z</time>
      </trkpt>
      <trkpt lat="43.75666" lon="5.22224">
        <ele>161</ele>
        <time>2019-01-11T10:43:02Z</time>
      </trkpt>
      <trkpt lat="43.75658" lon="5.22157">
        <ele>161</ele>
        <time>2019-01-11T10:44:02Z</time>
      </trkpt>
      <trkpt lat="43.7565" lon="5.22133">
        <ele>163</ele>
        <time>2019-01-11T10:45:02Z</time>
      </trkpt>
      <trkpt lat="43.75622" lon="5.22092">
        <ele>164</ele>
        <time>2019-01-11T10:46:02Z</time>
      </trkpt>
      <trkpt lat="43.75614" lon="5.2206">
        <ele>165</ele>
        <time>2019-01-11T10:47:02Z</time>
      </trkpt>
      <trkpt lat="43.75611" lon="5.22018">
        <ele>166</ele>
        <time>2019-01-11T10:48:02Z</time>
      </trkpt>
      <trkpt lat="43.75613" lon="5.21832">
        <ele>168</ele>
        <time>2019-01-11T10:49:02Z</time>
      </trkpt>
      <trkpt lat="43.75616" lon="5.2177">
        <ele>167</ele>
        <time>2019-01-11T10:50:02Z</time>
      </trkpt>
      <trkpt lat="43.75615" lon="5.21743">
        <ele>167</ele>
        <time>2019-01-11T10:51:02Z</time>
      </trkpt>
      <trkpt lat="43.75591" lon="5.21607">
        <ele>162</ele>
        <time>2019-01-11T10:52:02Z</time>
      </trkpt>
      <trkpt lat="43.75568" lon="5.21487">
        <ele>159</ele>
        <time>2019-01-11T10:53:02Z</time>
      </trkpt>
      <trkpt lat="43.75531" lon="5.21339">
        <ele>160</ele>
        <time>2019-01-11T10:54:02Z</time>
      </trkpt>
      <trkpt lat="43.75523" lon="5.21322">
        <ele>159</ele>
        <time>2019-01-11T10:55:02Z</time>
      </trkpt>
      <trkpt lat="43.75501" lon="5.21285">
        <ele>157</ele>
        <time>2019-01-11T10:56:02Z</time>
      </trkpt>
      <trkpt lat="43.75448" lon="5.21154">
        <ele>154</ele>
        <time>2019-01-11T10:57:02Z</time>
      </trkpt>
      <trkpt lat="43.75436" lon="5.21138">
        <ele>153</ele>
        <time>2019-01-11T10:58:02Z</time>
      </trkpt>
      <trkpt lat="43.75386" lon="5.2105">
        <ele>151</ele>
        <time>2019-01-11T10:59:02Z</time>
      </trkpt>
      <trkpt lat="43.75337" lon="5.20975">
        <ele>150</ele>
        <time>2019-01-11T11:00:02Z</time>
      </trkpt>
      <trkpt lat="43.75307" lon="5.20936">
        <ele>148</ele>
        <time>2019-01-11T11:01:02Z</time>
      </trkpt>
      <trkpt lat="43.75262" lon="5.20875">
        <ele>147</ele>
        <time>2019-01-11T11:02:02Z</time>
      </trkpt>
      <trkpt lat="43.75239" lon="5.20842">
        <ele>146</ele>
        <time>2019-01-11T11:03:02Z</time>
      </trkpt>
      <trkpt lat="43.75226" lon="5.20799">
        <ele>145</ele>
        <time>2019-01-11T11:04:02Z</time>
      </trkpt>
      <trkpt lat="43.75205" lon="5.20693">
        <ele>144</ele>
        <time>2019-01-11T11:05:02Z</time>
      </trkpt>
      <trkpt lat="43.75217" lon="5.20556">
        <ele>144</ele>
        <time>2019-01-11T11:06:02Z</time>
      </trkpt>
      <trkpt lat="43.75213" lon="5.20542">
        <ele>144</ele>
        <time>2019-01-11T11:07:02Z</time>
      </trkpt>
      <trkpt lat="43.75204" lon="5.20488">
        <ele>144</ele>
        <time>2019-01-11T11:08:02Z</time>
      </trkpt>
      <trkpt lat="43.75202" lon="5.20421">
        <ele>144</ele>
        <time>2019-01-11T11:09:02Z</time>
      </trkpt>
      <trkpt lat="43.75205" lon="5.20335">
        <ele>143</ele>
        <time>2019-01-11T11:10:02Z</time>
      </trkpt>
      <trkpt lat="43.75217" lon="5.20249">
        <ele>144</ele>
        <time>2019-01-11T11:11:02Z</time>
      </trkpt>
      <trkpt lat="43.7521" lon="5.20244">
        <ele>144</ele>
        <time>2019-01-11T11:12:02Z</time>
      </trkpt>
      <trkpt lat="43.7511" lon="5.20324">
        <ele>143</ele>
        <time>2019-01-11T11:13:02Z</time>
      </trkpt>
      <trkpt lat="43.75076" lon="5.20353">
        <ele>143</ele>
        <time>2019-01-11T11:14:02Z</time>
      </trkpt>
      <trkpt lat="43.75051" lon="5.20371">
        <ele>142</ele>
        <time>2019-01-11T11:15:02Z</time>
      </trkpt>
      <trkpt lat="43.75025" lon="5.20375">
        <ele>141</ele>
        <time>2019-01-11T11:16:02Z</time>
      </trkpt>
      <trkpt lat="43.75005" lon="5.20369">
        <ele>140</ele>
        <time>2019-01-11T11:17:02Z</time>
      </trkpt>
      <trkpt lat="43.74986" lon="5.20355">
        <ele>140</ele>
        <time>2019-01-11T11:18:02Z</time>
      </trkpt>
      <trkpt lat="43.74967" lon="5.20335">
        <ele>139</ele>
        <time>2019-01-11T11:19:02Z</time>
      </trkpt>
      <trkpt lat="43.74947" lon="5.20287">
        <ele>136</ele>
        <time>2019-01-11T11:20:02Z</time>
      </trkpt>
      <trkpt lat="43.74936" lon="5.20245">
        <ele>132</ele>
        <time>2019-01-11T11:21:02Z</time>
      </trkpt>
      <trkpt lat="43.74913" lon="5.20218">
        <ele>127</ele>
        <time>2019-01-11T11:22:02Z</time>
      </trkpt>
      <trkpt lat="43.74826" lon="5.2014">
        <ele>118</ele>
        <time>2019-01-11T11:23:02Z</time>
      </trkpt>
      <trkpt lat="43.74776" lon="5.20092">
        <ele>118</ele>
        <time>2019-01-11T11:24:02Z</time>
      </trkpt>
      <trkpt lat="43.74759" lon="5.20071">
        <ele>118</ele>
        <time>2019-01-11T11:25:02Z</time>
      </trkpt>
      <trkpt lat="43.74712" lon="5.19973">
        <ele>117</ele>
        <time>2019-01-11T11:26:02Z</time>
      </trkpt>
      <trkpt lat="43.74693" lon="5.19965">
        <ele>116</ele>
        <time>2019-01-11T11:27:02Z</time>
      </trkpt>
      <trkpt lat="43.74629" lon="5.19968">
        <ele>117</ele>
        <time>2019-01-11T11:28:02Z</time>
      </trkpt>
      <trkpt lat="43.7454" lon="5.19972">
        <ele>117</ele>
        <time>2019-01-11T11:29:02Z</time>
      </trkpt>
      <trkpt lat="43.745" lon="5.19969">
        <ele>117</ele>
        <time>2019-01-11T11:30:02Z</time>
      </trkpt>
      <trkpt lat="43.74428" lon="5.19907">
        <ele>117</ele>
        <time>2019-01-11T11:31:02Z</time>
      </trkpt>
      <trkpt lat="43.74387" lon="5.19896">
        <ele>118</ele>
        <time>2019-01-11T11:32:02Z</time>
      </trkpt>
      <trkpt lat="43.74365" lon="5.19873">
        <ele>118</ele>
        <time>2019-01-11T11:33:02Z</time>
      </trkpt>
      <trkpt lat="43.74373" lon="5.19659">
        <ele>116</ele>
        <time>2019-01-11T11:34:02Z</time>
      </trkpt>
      <trkpt lat="43.74393" lon="5.19653">
        <ele>116</ele>
        <time>2019-01-11T11:35:02Z</time>
      </trkpt>
      <trkpt lat="43.74429" lon="5.19637">
        <ele>116</ele>
        <time>2019-01-11T11:36:02Z</time>
      </trkpt>
    </trkseg>
  </trk>
</gpx>